sensor_id;sensor_type;location;lat;lon;timestamp;temperature;humidity
25554;DHT22;13446;50.926;5.332;2023-02-27T00:01:45;2.30;99.90
25554;DHT22;13446;50.926;5.332;2023-02-27T00:04:11;2.30;99.90
25554;DHT22;13446;50.926;5.332;2023-02-27T00:06:36;2.20;99.90
25554;DHT22;13446;50.926;5.332;2023-02-27T00:09:02;2.10;99.90
25554;DHT22;13446;50.926;5.332;2023-02-27T00:11:27;2.10;99.90
25554;DHT22;13446;50.926;5.332;2023-02-27T00:13:53;2.20;99.90
25554;DHT22;13446;50.926;5.332;2023-02-27T00:16:19;2.10;99.90
25554;DHT22;13446;50.926;5.332;2023-02-27T00:18:44;2.00;99.90
25554;DHT22;13446;50.926;5.332;2023-02-27T00:21:10;1.90;99.90
25554;DHT22;13446;50.926;5.332;2023-02-27T00:23:36;2.00;99.90
25554;DHT22;13446;50.926;5.332;2023-02-27T00:26:01;2.10;99.90
25554;DHT22;13446;50.926;5.332;2023-02-27T00:28:28;2.20;99.90
25554;DHT22;13446;50.926;5.332;2023-02-27T00:30:53;1.90;99.90
25554;DHT22;13446;50.926;5.332;2023-02-27T00:33:19;1.90;99.90
25554;DHT22;13446;50.926;5.332;2023-02-27T00:35:44;1.80;99.90
25554;DHT22;13446;50.926;5.332;2023-02-27T00:38:10;1.60;99.90
25554;DHT22;13446;50.926;5.332;2023-02-27T00:40:35;1.60;99.90
25554;DHT22;13446;50.926;5.332;2023-02-27T00:43:01;1.60;99.90
25554;DHT22;13446;50.926;5.332;2023-02-27T00:45:27;1.70;99.90
25554;DHT22;13446;50.926;5.332;2023-02-27T00:47:52;1.70;99.90
25554;DHT22;13446;50.926;5.332;2023-02-27T00:50:18;1.60;99.90
25554;DHT22;13446;50.926;5.332;2023-02-27T00:52:45;1.60;99.90
25554;DHT22;13446;50.926;5.332;2023-02-27T00:55:10;1.70;99.90
25554;DHT22;13446;50.926;5.332;2023-02-27T00:57:37;1.70;99.90
25554;DHT22;13446;50.926;5.332;2023-02-27T01:00:04;1.70;99.90
25554;DHT22;13446;50.926;5.332;2023-02-27T01:02:30;1.60;99.90
25554;DHT22;13446;50.926;5.332;2023-02-27T01:04:56;1.60;99.90
25554;DHT22;13446;50.926;5.332;2023-02-27T01:07:21;1.60;99.90
25554;DHT22;13446;50.926;5.332;2023-02-27T01:09:48;1.40;99.90
25554;DHT22;13446;50.926;5.332;2023-02-27T01:12:14;1.20;99.90
25554;DHT22;13446;50.926;5.332;2023-02-27T01:14:40;1.20;99.90
25554;DHT22;13446;50.926;5.332;2023-02-27T01:17:08;1.30;99.90
25554;DHT22;13446;50.926;5.332;2023-02-27T01:19:36;1.30;99.90
25554;DHT22;13446;50.926;5.332;2023-02-27T01:22:03;1.40;99.90
25554;DHT22;13446;50.926;5.332;2023-02-27T01:24:29;1.40;99.90
25554;DHT22;13446;50.926;5.332;2023-02-27T01:26:54;1.40;99.90
25554;DHT22;13446;50.926;5.332;2023-02-27T01:29:20;1.30;99.90
25554;DHT22;13446;50.926;5.332;2023-02-27T01:31:45;1.20;99.90
25554;DHT22;13446;50.926;5.332;2023-02-27T01:34:14;1.30;99.90
25554;DHT22;13446;50.926;5.332;2023-02-27T01:36:39;1.30;99.90
25554;DHT22;13446;50.926;5.332;2023-02-27T01:39:05;1.30;99.90
25554;DHT22;13446;50.926;5.332;2023-02-27T01:41:31;1.30;99.90
25554;DHT22;13446;50.926;5.332;2023-02-27T01:44:08;1.40;99.90
25554;DHT22;13446;50.926;5.332;2023-02-27T01:46:34;1.50;99.90
25554;DHT22;13446;50.926;5.332;2023-02-27T01:49:04;1.40;99.90
25554;DHT22;13446;50.926;5.332;2023-02-27T01:51:34;1.30;99.90
25554;DHT22;13446;50.926;5.332;2023-02-27T01:54:01;1.30;99.90
25554;DHT22;13446;50.926;5.332;2023-02-27T01:56:28;1.30;99.90
25554;DHT22;13446;50.926;5.332;2023-02-27T01:59:05;1.20;99.90
25554;DHT22;13446;50.926;5.332;2023-02-27T02:01:32;1.20;99.90
25554;DHT22;13446;50.926;5.332;2023-02-27T02:04:05;1.30;99.90
25554;DHT22;13446;50.926;5.332;2023-02-27T02:06:33;1.20;99.90
25554;DHT22;13446;50.926;5.332;2023-02-27T02:08:59;1.10;99.90
25554;DHT22;13446;50.926;5.332;2023-02-27T02:11:26;1.10;99.90
25554;DHT22;13446;50.926;5.332;2023-02-27T02:13:55;0.90;99.90
25554;DHT22;13446;50.926;5.332;2023-02-27T02:19:52;0.90;99.90
25554;DHT22;13446;50.926;5.332;2023-02-27T02:24:33;0.90;99.90
25554;DHT22;13446;50.926;5.332;2023-02-27T02:37:50;1.00;99.90
25554;DHT22;13446;50.926;5.332;2023-02-27T02:50:35;0.90;99.90
25554;DHT22;13446;50.926;5.332;2023-02-27T02:55:45;0.90;99.90
25554;DHT22;13446;50.926;5.332;2023-02-27T02:58:13;0.90;99.90
25554;DHT22;13446;50.926;5.332;2023-02-27T03:00:46;1.00;99.90
25554;DHT22;13446;50.926;5.332;2023-02-27T03:03:24;1.00;99.90
25554;DHT22;13446;50.926;5.332;2023-02-27T03:05:54;0.90;99.90
25554;DHT22;13446;50.926;5.332;2023-02-27T03:08:22;0.90;99.90
25554;DHT22;13446;50.926;5.332;2023-02-27T03:10:51;0.80;99.90
25554;DHT22;13446;50.926;5.332;2023-02-27T03:15:46;0.80;99.90
25554;DHT22;13446;50.926;5.332;2023-02-27T03:18:13;0.60;99.90
25554;DHT22;13446;50.926;5.332;2023-02-27T03:20:45;0.60;99.90
25554;DHT22;13446;50.926;5.332;2023-02-27T03:23:16;0.60;99.90
25554;DHT22;13446;50.926;5.332;2023-02-27T03:25:44;0.50;99.90
25554;DHT22;13446;50.926;5.332;2023-02-27T03:28:12;0.60;99.90
25554;DHT22;13446;50.926;5.332;2023-02-27T03:30:40;0.60;99.90
25554;DHT22;13446;50.926;5.332;2023-02-27T03:33:13;0.60;99.90
25554;DHT22;13446;50.926;5.332;2023-02-27T03:35:45;0.60;99.90
25554;DHT22;13446;50.926;5.332;2023-02-27T03:38:16;0.60;99.90
25554;DHT22;13446;50.926;5.332;2023-02-27T03:40:54;0.60;99.90
25554;DHT22;13446;50.926;5.332;2023-02-27T03:45:55;0.60;99.90
25554;DHT22;13446;50.926;5.332;2023-02-27T03:48:23;0.50;99.90
25554;DHT22;13446;50.926;5.332;2023-02-27T03:50:55;0.50;99.90
25554;DHT22;13446;50.926;5.332;2023-02-27T03:53:27;0.50;99.90
25554;DHT22;13446;50.926;5.332;2023-02-27T03:55:54;0.50;99.90
25554;DHT22;13446;50.926;5.332;2023-02-27T03:58:28;0.50;99.90
25554;DHT22;13446;50.926;5.332;2023-02-27T04:00:54;0.50;99.90
25554;DHT22;13446;50.926;5.332;2023-02-27T04:03:19;0.60;99.90
25554;DHT22;13446;50.926;5.332;2023-02-27T04:05:45;0.60;99.90
25554;DHT22;13446;50.926;5.332;2023-02-27T04:18:50;0.70;99.90
25554;DHT22;13446;50.926;5.332;2023-02-27T04:26:57;0.70;99.90
25554;DHT22;13446;50.926;5.332;2023-02-27T04:32:03;0.70;99.90
25554;DHT22;13446;50.926;5.332;2023-02-27T04:34:37;0.70;99.90
25554;DHT22;13446;50.926;5.332;2023-02-27T04:37:19;0.50;99.90
25554;DHT22;13446;50.926;5.332;2023-02-27T04:42:20;0.30;99.90
25554;DHT22;13446;50.926;5.332;2023-02-27T04:44:48;0.40;99.90
25554;DHT22;13446;50.926;5.332;2023-02-27T04:47:14;0.40;99.90
25554;DHT22;13446;50.926;5.332;2023-02-27T04:52:15;0.50;99.90
25554;DHT22;13446;50.926;5.332;2023-02-27T04:54:45;0.50;99.90
25554;DHT22;13446;50.926;5.332;2023-02-27T04:57:24;0.60;99.90
25554;DHT22;13446;50.926;5.332;2023-02-27T04:59:51;0.60;99.90
25554;DHT22;13446;50.926;5.332;2023-02-27T05:02:21;0.60;99.90
25554;DHT22;13446;50.926;5.332;2023-02-27T05:04:49;0.70;99.90
25554;DHT22;13446;50.926;5.332;2023-02-27T05:07:17;0.60;99.90
25554;DHT22;13446;50.926;5.332;2023-02-27T05:15:20;0.20;99.90
25554;DHT22;13446;50.926;5.332;2023-02-27T05:18:00;0.20;99.90
25554;DHT22;13446;50.926;5.332;2023-02-27T05:20:30;0.30;99.90
25554;DHT22;13446;50.926;5.332;2023-02-27T05:23:02;0.30;99.90
25554;DHT22;13446;50.926;5.332;2023-02-27T05:33:17;0.30;99.90
25554;DHT22;13446;50.926;5.332;2023-02-27T05:35:46;0.40;99.90
25554;DHT22;13446;50.926;5.332;2023-02-27T05:38:18;0.40;99.90
25554;DHT22;13446;50.926;5.332;2023-02-27T05:40:47;0.30;99.90
25554;DHT22;13446;50.926;5.332;2023-02-27T05:43:17;0.30;99.90
25554;DHT22;13446;50.926;5.332;2023-02-27T05:45:45;0.30;99.90
25554;DHT22;13446;50.926;5.332;2023-02-27T05:48:20;0.40;99.90
25554;DHT22;13446;50.926;5.332;2023-02-27T05:50:47;0.30;99.90
25554;DHT22;13446;50.926;5.332;2023-02-27T05:53:16;0.30;99.90
25554;DHT22;13446;50.926;5.332;2023-02-27T05:55:49;0.30;99.90
25554;DHT22;13446;50.926;5.332;2023-02-27T05:58:17;0.10;99.90
25554;DHT22;13446;50.926;5.332;2023-02-27T06:00:48;0.00;99.90
25554;DHT22;13446;50.926;5.332;2023-02-27T06:03:15;0.00;99.90
25554;DHT22;13446;50.926;5.332;2023-02-27T06:05:41;0.00;99.90
25554;DHT22;13446;50.926;5.332;2023-02-27T06:08:07;0.00;99.90
25554;DHT22;13446;50.926;5.332;2023-02-27T06:10:34;-0.10;99.90
25554;DHT22;13446;50.926;5.332;2023-02-27T06:12:59;-0.10;99.90
25554;DHT22;13446;50.926;5.332;2023-02-27T06:15:25;-0.10;99.90
25554;DHT22;13446;50.926;5.332;2023-02-27T06:17:51;0.10;99.90
25554;DHT22;13446;50.926;5.332;2023-02-27T06:20:17;0.10;99.90
25554;DHT22;13446;50.926;5.332;2023-02-27T06:22:42;0.20;99.90
25554;DHT22;13446;50.926;5.332;2023-02-27T06:25:08;0.30;99.90
25554;DHT22;13446;50.926;5.332;2023-02-27T06:27:34;0.30;99.90
25554;DHT22;13446;50.926;5.332;2023-02-27T06:30:00;0.20;99.90
25554;DHT22;13446;50.926;5.332;2023-02-27T06:32:25;0.20;99.90
25554;DHT22;13446;50.926;5.332;2023-02-27T06:34:51;0.20;99.90
25554;DHT22;13446;50.926;5.332;2023-02-27T06:37:17;0.20;99.90
25554;DHT22;13446;50.926;5.332;2023-02-27T06:39:42;0.20;99.90
25554;DHT22;13446;50.926;5.332;2023-02-27T06:42:08;0.20;99.90
25554;DHT22;13446;50.926;5.332;2023-02-27T06:44:33;0.10;99.90
25554;DHT22;13446;50.926;5.332;2023-02-27T06:46:59;0.10;99.90
25554;DHT22;13446;50.926;5.332;2023-02-27T06:49:25;0.20;99.90
25554;DHT22;13446;50.926;5.332;2023-02-27T06:51:51;0.20;99.90
25554;DHT22;13446;50.926;5.332;2023-02-27T06:54:16;0.30;99.90
25554;DHT22;13446;50.926;5.332;2023-02-27T06:56:42;0.40;99.90
25554;DHT22;13446;50.926;5.332;2023-02-27T06:59:08;0.30;99.90
25554;DHT22;13446;50.926;5.332;2023-02-27T07:01:33;0.30;99.90
25554;DHT22;13446;50.926;5.332;2023-02-27T07:03:59;0.30;99.90
25554;DHT22;13446;50.926;5.332;2023-02-27T07:06:25;0.40;99.90
25554;DHT22;13446;50.926;5.332;2023-02-27T07:08:51;0.40;99.90
25554;DHT22;13446;50.926;5.332;2023-02-27T07:11:16;0.40;99.90
25554;DHT22;13446;50.926;5.332;2023-02-27T07:13:42;0.40;99.90
25554;DHT22;13446;50.926;5.332;2023-02-27T07:16:07;0.60;99.90
25554;DHT22;13446;50.926;5.332;2023-02-27T07:18:34;0.70;99.90
25554;DHT22;13446;50.926;5.332;2023-02-27T07:20:59;0.70;99.90
25554;DHT22;13446;50.926;5.332;2023-02-27T07:23:25;0.70;99.90
25554;DHT22;13446;50.926;5.332;2023-02-27T07:25:51;0.80;99.90
25554;DHT22;13446;50.926;5.332;2023-02-27T07:28:16;1.10;99.90
25554;DHT22;13446;50.926;5.332;2023-02-27T07:30:43;1.00;99.90
25554;DHT22;13446;50.926;5.332;2023-02-27T07:33:09;0.90;99.90
25554;DHT22;13446;50.926;5.332;2023-02-27T07:35:35;1.30;99.90
25554;DHT22;13446;50.926;5.332;2023-02-27T07:38:01;2.20;99.90
25554;DHT22;13446;50.926;5.332;2023-02-27T07:40:26;3.30;99.90
25554;DHT22;13446;50.926;5.332;2023-02-27T07:42:52;4.10;99.90
25554;DHT22;13446;50.926;5.332;2023-02-27T07:45:18;5.10;99.90
25554;DHT22;13446;50.926;5.332;2023-02-27T07:47:44;6.00;99.90
25554;DHT22;13446;50.926;5.332;2023-02-27T07:50:09;6.80;99.90
25554;DHT22;13446;50.926;5.332;2023-02-27T07:52:39;8.10;99.90
25554;DHT22;13446;50.926;5.332;2023-02-27T07:55:05;9.10;99.90
25554;DHT22;13446;50.926;5.332;2023-02-27T07:57:30;9.40;99.90
25554;DHT22;13446;50.926;5.332;2023-02-27T07:59:56;10.50;97.30
25554;DHT22;13446;50.926;5.332;2023-02-27T08:02:22;11.30;92.90
25554;DHT22;13446;50.926;5.332;2023-02-27T08:04:48;12.20;90.90
25554;DHT22;13446;50.926;5.332;2023-02-27T08:07:13;13.00;85.60
25554;DHT22;13446;50.926;5.332;2023-02-27T08:09:39;13.10;76.60
25554;DHT22;13446;50.926;5.332;2023-02-27T08:12:05;13.10;74.60
25554;DHT22;13446;50.926;5.332;2023-02-27T08:14:30;13.60;73.90
25554;DHT22;13446;50.926;5.332;2023-02-27T08:16:56;13.20;71.80
25554;DHT22;13446;50.926;5.332;2023-02-27T08:19:22;14.10;68.50
25554;DHT22;13446;50.926;5.332;2023-02-27T08:21:47;13.70;67.10
25554;DHT22;13446;50.926;5.332;2023-02-27T08:24:13;14.20;67.60
25554;DHT22;13446;50.926;5.332;2023-02-27T08:26:38;14.70;64.80
25554;DHT22;13446;50.926;5.332;2023-02-27T08:29:04;14.80;60.30
25554;DHT22;13446;50.926;5.332;2023-02-27T08:31:29;14.90;59.70
25554;DHT22;13446;50.926;5.332;2023-02-27T08:33:55;13.90;61.60
25554;DHT22;13446;50.926;5.332;2023-02-27T08:36:20;14.20;59.60
25554;DHT22;13446;50.926;5.332;2023-02-27T08:38:46;14.90;58.90
25554;DHT22;13446;50.926;5.332;2023-02-27T08:41:12;15.00;57.90
25554;DHT22;13446;50.926;5.332;2023-02-27T08:43:37;16.20;56.20
25554;DHT22;13446;50.926;5.332;2023-02-27T08:46:03;16.20;56.40
25554;DHT22;13446;50.926;5.332;2023-02-27T08:48:33;16.50;52.50
25554;DHT22;13446;50.926;5.332;2023-02-27T08:50:58;17.10;52.50
25554;DHT22;13446;50.926;5.332;2023-02-27T08:53:24;17.10;51.10
25554;DHT22;13446;50.926;5.332;2023-02-27T08:55:50;17.00;50.70
25554;DHT22;13446;50.926;5.332;2023-02-27T08:58:16;17.70;49.30
25554;DHT22;13446;50.926;5.332;2023-02-27T09:00:42;16.90;47.80
25554;DHT22;13446;50.926;5.332;2023-02-27T09:03:07;16.80;49.70
25554;DHT22;13446;50.926;5.332;2023-02-27T09:05:33;16.90;47.40
25554;DHT22;13446;50.926;5.332;2023-02-27T09:08:00;17.50;48.10
25554;DHT22;13446;50.926;5.332;2023-02-27T09:10:25;16.90;48.10
25554;DHT22;13446;50.926;5.332;2023-02-27T09:12:52;18.10;47.70
25554;DHT22;13446;50.926;5.332;2023-02-27T09:15:18;17.00;47.00
25554;DHT22;13446;50.926;5.332;2023-02-27T09:17:44;17.40;46.90
25554;DHT22;13446;50.926;5.332;2023-02-27T09:20:09;17.90;46.30
25554;DHT22;13446;50.926;5.332;2023-02-27T09:22:35;18.40;44.80
25554;DHT22;13446;50.926;5.332;2023-02-27T09:25:01;18.30;43.90
25554;DHT22;13446;50.926;5.332;2023-02-27T09:27:27;18.60;43.50
25554;DHT22;13446;50.926;5.332;2023-02-27T09:29:53;19.40;41.90
25554;DHT22;13446;50.926;5.332;2023-02-27T09:32:23;19.00;41.50
25554;DHT22;13446;50.926;5.332;2023-02-27T09:34:49;19.20;42.50
25554;DHT22;13446;50.926;5.332;2023-02-27T09:37:16;19.20;41.80
25554;DHT22;13446;50.926;5.332;2023-02-27T09:39:43;18.70;40.70
25554;DHT22;13446;50.926;5.332;2023-02-27T09:42:20;18.80;41.80
25554;DHT22;13446;50.926;5.332;2023-02-27T09:44:50;19.80;40.50
25554;DHT22;13446;50.926;5.332;2023-02-27T09:47:29;19.80;40.30
25554;DHT22;13446;50.926;5.332;2023-02-27T09:50:03;19.70;39.00
25554;DHT22;13446;50.926;5.332;2023-02-27T09:52:30;19.90;38.70
25554;DHT22;13446;50.926;5.332;2023-02-27T09:54:56;19.00;39.30
25554;DHT22;13446;50.926;5.332;2023-02-27T09:57:43;19.90;38.90
25554;DHT22;13446;50.926;5.332;2023-02-27T10:00:33;19.80;38.50
25554;DHT22;13446;50.926;5.332;2023-02-27T10:03:20;20.10;38.10
25554;DHT22;13446;50.926;5.332;2023-02-27T10:10:48;19.50;37.30
25554;DHT22;13446;50.926;5.332;2023-02-27T10:15:48;18.40;38.30
25554;DHT22;13446;50.926;5.332;2023-02-27T10:18:17;18.40;39.60
25554;DHT22;13446;50.926;5.332;2023-02-27T10:23:40;20.50;36.30
25554;DHT22;13446;50.926;5.332;2023-02-27T10:26:07;20.30;36.70
25554;DHT22;13446;50.926;5.332;2023-02-27T10:28:39;19.20;36.00
25554;DHT22;13446;50.926;5.332;2023-02-27T10:31:09;18.70;37.50
25554;DHT22;13446;50.926;5.332;2023-02-27T10:33:37;17.90;38.70
25554;DHT22;13446;50.926;5.332;2023-02-27T10:36:03;17.40;39.20
25554;DHT22;13446;50.926;5.332;2023-02-27T10:38:42;17.10;39.40
25554;DHT22;13446;50.926;5.332;2023-02-27T10:41:09;17.50;39.80
25554;DHT22;13446;50.926;5.332;2023-02-27T10:43:36;18.00;39.00
25554;DHT22;13446;50.926;5.332;2023-02-27T10:46:02;17.20;39.50
25554;DHT22;13446;50.926;5.332;2023-02-27T10:48:31;17.40;39.30
25554;DHT22;13446;50.926;5.332;2023-02-27T10:53:41;18.70;39.30
25554;DHT22;13446;50.926;5.332;2023-02-27T10:56:06;19.30;36.60
25554;DHT22;13446;50.926;5.332;2023-02-27T10:58:35;18.90;37.00
25554;DHT22;13446;50.926;5.332;2023-02-27T11:01:02;18.50;36.50
25554;DHT22;13446;50.926;5.332;2023-02-27T11:03:31;18.30;37.10
25554;DHT22;13446;50.926;5.332;2023-02-27T11:05:58;18.60;36.80
25554;DHT22;13446;50.926;5.332;2023-02-27T11:08:26;17.90;37.70
25554;DHT22;13446;50.926;5.332;2023-02-27T11:10:53;16.90;38.90
25554;DHT22;13446;50.926;5.332;2023-02-27T11:13:20;15.70;40.20
25554;DHT22;13446;50.926;5.332;2023-02-27T11:15:46;16.00;41.10
25554;DHT22;13446;50.926;5.332;2023-02-27T11:18:26;16.50;40.30
25554;DHT22;13446;50.926;5.332;2023-02-27T11:20:53;17.30;39.60
25554;DHT22;13446;50.926;5.332;2023-02-27T11:23:21;17.50;39.70
25554;DHT22;13446;50.926;5.332;2023-02-27T11:25:47;16.70;39.60
25554;DHT22;13446;50.926;5.332;2023-02-27T11:28:28;16.90;39.90
25554;DHT22;13446;50.926;5.332;2023-02-27T11:31:05;17.30;40.20
25554;DHT22;13446;50.926;5.332;2023-02-27T11:33:36;17.50;38.20
25554;DHT22;13446;50.926;5.332;2023-02-27T11:36:02;17.30;39.50
25554;DHT22;13446;50.926;5.332;2023-02-27T11:38:28;17.60;39.30
25554;DHT22;13446;50.926;5.332;2023-02-27T11:40:56;17.40;39.40
25554;DHT22;13446;50.926;5.332;2023-02-27T11:46:21;18.50;38.50
25554;DHT22;13446;50.926;5.332;2023-02-27T11:48:48;18.60;36.20
25554;DHT22;13446;50.926;5.332;2023-02-27T11:51:37;18.40;36.30
25554;DHT22;13446;50.926;5.332;2023-02-27T11:54:19;18.40;36.60
25554;DHT22;13446;50.926;5.332;2023-02-27T11:56:53;18.30;37.10
25554;DHT22;13446;50.926;5.332;2023-02-27T11:59:24;18.60;36.70
25554;DHT22;13446;50.926;5.332;2023-02-27T12:07:14;18.30;36.10
25554;DHT22;13446;50.926;5.332;2023-02-27T12:10:26;18.90;36.30
25554;DHT22;13446;50.926;5.332;2023-02-27T12:12:35;18.90;36.80
25554;DHT22;13446;50.926;5.332;2023-02-27T12:17:43;18.30;35.70
25554;DHT22;13446;50.926;5.332;2023-02-27T12:20:24;18.40;35.80
25554;DHT22;13446;50.926;5.332;2023-02-27T12:22:52;18.50;36.60
25554;DHT22;13446;50.926;5.332;2023-02-27T12:28:17;20.20;34.30
25554;DHT22;13446;50.926;5.332;2023-02-27T12:30:40;19.80;34.10
25554;DHT22;13446;50.926;5.332;2023-02-27T12:35:38;18.30;36.70
25554;DHT22;13446;50.926;5.332;2023-02-27T12:38:04;16.60;37.30
25554;DHT22;13446;50.926;5.332;2023-02-27T12:40:34;15.60;39.60
25554;DHT22;13446;50.926;5.332;2023-02-27T12:47:57;15.60;41.10
25554;DHT22;13446;50.926;5.332;2023-02-27T12:50:39;15.70;40.20
25554;DHT22;13446;50.926;5.332;2023-02-27T12:53:22;15.10;40.90
25554;DHT22;13446;50.926;5.332;2023-02-27T12:56:03;15.30;41.00
25554;DHT22;13446;50.926;5.332;2023-02-27T13:01:22;16.50;40.80
25554;DHT22;13446;50.926;5.332;2023-02-27T13:06:57;16.40;40.40
25554;DHT22;13446;50.926;5.332;2023-02-27T13:12:12;15.20;41.40
25554;DHT22;13446;50.926;5.332;2023-02-27T13:17:14;13.80;45.70
25554;DHT22;13446;50.926;5.332;2023-02-27T13:19:51;14.10;43.80
25554;DHT22;13446;50.926;5.332;2023-02-27T13:24:55;13.40;45.80
25554;DHT22;13446;50.926;5.332;2023-02-27T13:27:23;13.70;44.00
25554;DHT22;13446;50.926;5.332;2023-02-27T13:38:01;15.80;40.50
25554;DHT22;13446;50.926;5.332;2023-02-27T13:43:02;15.20;41.40
25554;DHT22;13446;50.926;5.332;2023-02-27T13:45:50;14.80;41.80
25554;DHT22;13446;50.926;5.332;2023-02-27T13:51:00;15.00;43.40
25554;DHT22;13446;50.926;5.332;2023-02-27T13:53:26;14.20;42.80
25554;DHT22;13446;50.926;5.332;2023-02-27T13:55:55;13.80;44.10
25554;DHT22;13446;50.926;5.332;2023-02-27T13:58:21;13.90;44.60
25554;DHT22;13446;50.926;5.332;2023-02-27T14:00:55;14.60;44.00
25554;DHT22;13446;50.926;5.332;2023-02-27T14:03:22;15.10;43.30
25554;DHT22;13446;50.926;5.332;2023-02-27T14:05:50;15.70;42.70
25554;DHT22;13446;50.926;5.332;2023-02-27T14:08:20;15.90;41.70
25554;DHT22;13446;50.926;5.332;2023-02-27T14:10:54;15.30;42.70
25554;DHT22;13446;50.926;5.332;2023-02-27T14:16:06;12.50;47.00
25554;DHT22;13446;50.926;5.332;2023-02-27T14:18:53;11.70;49.80
25554;DHT22;13446;50.926;5.332;2023-02-27T14:34:39;12.80;48.90
25554;DHT22;13446;50.926;5.332;2023-02-27T14:37:09;11.80;49.80
25554;DHT22;13446;50.926;5.332;2023-02-27T14:39:36;11.20;51.60
25554;DHT22;13446;50.926;5.332;2023-02-27T14:44:56;10.80;53.30
25554;DHT22;13446;50.926;5.332;2023-02-27T14:47:30;10.30;55.40
25554;DHT22;13446;50.926;5.332;2023-02-27T14:49:56;9.90;57.60
25554;DHT22;13446;50.926;5.332;2023-02-27T14:52:28;9.60;59.60
25554;DHT22;13446;50.926;5.332;2023-02-27T14:57:38;9.20;63.70
25554;DHT22;13446;50.926;5.332;2023-02-27T15:00:04;9.10;65.80
25554;DHT22;13446;50.926;5.332;2023-02-27T15:02:31;9.20;66.10
25554;DHT22;13446;50.926;5.332;2023-02-27T15:07:30;9.00;67.60
25554;DHT22;13446;50.926;5.332;2023-02-27T15:10:00;8.80;69.30
25554;DHT22;13446;50.926;5.332;2023-02-27T15:12:26;8.90;69.20
25554;DHT22;13446;50.926;5.332;2023-02-27T15:14:53;8.90;68.40
25554;DHT22;13446;50.926;5.332;2023-02-27T15:17:23;8.70;68.90
25554;DHT22;13446;50.926;5.332;2023-02-27T15:19:53;8.40;71.00
25554;DHT22;13446;50.926;5.332;2023-02-27T15:22:20;8.40;72.40
25554;DHT22;13446;50.926;5.332;2023-02-27T15:24:47;8.50;73.90
25554;DHT22;13446;50.926;5.332;2023-02-27T15:27:17;8.40;75.50
25554;DHT22;13446;50.926;5.332;2023-02-27T15:29:47;8.50;76.10
25554;DHT22;13446;50.926;5.332;2023-02-27T15:32:20;8.70;76.80
25554;DHT22;13446;50.926;5.332;2023-02-27T15:34:46;8.80;75.90
25554;DHT22;13446;50.926;5.332;2023-02-27T15:37:31;8.90;75.90
25554;DHT22;13446;50.926;5.332;2023-02-27T15:39:57;8.80;75.10
25554;DHT22;13446;50.926;5.332;2023-02-27T15:42:28;8.80;75.40
25554;DHT22;13446;50.926;5.332;2023-02-27T15:44:54;8.60;77.00
25554;DHT22;13446;50.926;5.332;2023-02-27T15:47:22;8.40;77.30
25554;DHT22;13446;50.926;5.332;2023-02-27T15:49:49;8.40;76.90
25554;DHT22;13446;50.926;5.332;2023-02-27T15:54:45;8.50;78.30
25554;DHT22;13446;50.926;5.332;2023-02-27T15:57:11;8.60;76.10
25554;DHT22;13446;50.926;5.332;2023-02-27T15:59:39;8.50;77.10
25554;DHT22;13446;50.926;5.332;2023-02-27T16:02:08;8.60;77.40
25554;DHT22;13446;50.926;5.332;2023-02-27T16:04:38;8.60;76.90
25554;DHT22;13446;50.926;5.332;2023-02-27T16:07:05;8.50;77.00
25554;DHT22;13446;50.926;5.332;2023-02-27T16:09:35;8.50;78.00
25554;DHT22;13446;50.926;5.332;2023-02-27T16:12:10;8.40;79.00
25554;DHT22;13446;50.926;5.332;2023-02-27T16:17:02;8.10;81.70
25554;DHT22;13446;50.926;5.332;2023-02-27T16:19:29;7.90;82.90
25554;DHT22;13446;50.926;5.332;2023-02-27T16:22:29;7.90;83.10
25554;DHT22;13446;50.926;5.332;2023-02-27T16:24:47;8.00;83.00
25554;DHT22;13446;50.926;5.332;2023-02-27T16:27:23;8.00;82.60
25554;DHT22;13446;50.926;5.332;2023-02-27T16:29:50;7.90;83.30
25554;DHT22;13446;50.926;5.332;2023-02-27T16:32:23;7.80;83.50
25554;DHT22;13446;50.926;5.332;2023-02-27T16:34:50;7.80;83.20
25554;DHT22;13446;50.926;5.332;2023-02-27T16:37:37;7.80;83.80
25554;DHT22;13446;50.926;5.332;2023-02-27T16:40:05;7.90;83.50
25554;DHT22;13446;50.926;5.332;2023-02-27T16:42:33;7.70;84.60
25554;DHT22;13446;50.926;5.332;2023-02-27T16:44:59;7.60;83.70
25554;DHT22;13446;50.926;5.332;2023-02-27T16:47:25;7.80;84.10
25554;DHT22;13446;50.926;5.332;2023-02-27T16:49:52;7.60;84.00
25554;DHT22;13446;50.926;5.332;2023-02-27T16:52:18;7.60;84.70
25554;DHT22;13446;50.926;5.332;2023-02-27T16:54:46;7.40;85.10
25554;DHT22;13446;50.926;5.332;2023-02-27T16:57:12;7.30;86.60
25554;DHT22;13446;50.926;5.332;2023-02-27T16:59:38;7.30;87.50
25554;DHT22;13446;50.926;5.332;2023-02-27T17:02:14;7.10;88.70
25554;DHT22;13446;50.926;5.332;2023-02-27T17:04:40;7.20;88.60
25554;DHT22;13446;50.926;5.332;2023-02-27T17:07:12;7.10;89.30
25554;DHT22;13446;50.926;5.332;2023-02-27T17:09:40;7.00;89.70
25554;DHT22;13446;50.926;5.332;2023-02-27T17:12:06;7.10;90.00
25554;DHT22;13446;50.926;5.332;2023-02-27T17:14:31;6.90;90.30
25554;DHT22;13446;50.926;5.332;2023-02-27T17:16:57;7.00;90.60
25554;DHT22;13446;50.926;5.332;2023-02-27T17:19:22;6.80;91.20
25554;DHT22;13446;50.926;5.332;2023-02-27T17:21:48;6.80;91.60
25554;DHT22;13446;50.926;5.332;2023-02-27T17:24:15;6.90;91.60
25554;DHT22;13446;50.926;5.332;2023-02-27T17:26:40;6.80;91.70
25554;DHT22;13446;50.926;5.332;2023-02-27T17:29:06;6.70;92.40
25554;DHT22;13446;50.926;5.332;2023-02-27T17:31:34;6.60;92.90
25554;DHT22;13446;50.926;5.332;2023-02-27T17:33:59;6.80;92.90
25554;DHT22;13446;50.926;5.332;2023-02-27T17:36:27;6.90;92.80
25554;DHT22;13446;50.926;5.332;2023-02-27T17:38:57;6.80;93.10
25554;DHT22;13446;50.926;5.332;2023-02-27T17:41:24;6.70;93.30
25554;DHT22;13446;50.926;5.332;2023-02-27T17:43:51;6.70;93.50
25554;DHT22;13446;50.926;5.332;2023-02-27T17:46:17;6.80;94.10
25554;DHT22;13446;50.926;5.332;2023-02-27T17:48:42;6.70;93.90
25554;DHT22;13446;50.926;5.332;2023-02-27T17:51:09;6.60;94.40
25554;DHT22;13446;50.926;5.332;2023-02-27T17:53:35;6.50;94.50
25554;DHT22;13446;50.926;5.332;2023-02-27T17:56:01;6.50;94.60
25554;DHT22;13446;50.926;5.332;2023-02-27T17:58:27;6.40;94.90
25554;DHT22;13446;50.926;5.332;2023-02-27T18:00:52;6.40;95.40
25554;DHT22;13446;50.926;5.332;2023-02-27T18:03:18;6.50;95.00
25554;DHT22;13446;50.926;5.332;2023-02-27T18:05:50;6.50;94.90
25554;DHT22;13446;50.926;5.332;2023-02-27T18:08:16;6.40;95.40
25554;DHT22;13446;50.926;5.332;2023-02-27T18:10:46;6.30;95.50
25554;DHT22;13446;50.926;5.332;2023-02-27T18:13:12;6.30;96.00
25554;DHT22;13446;50.926;5.332;2023-02-27T18:15:38;6.20;96.20
25554;DHT22;13446;50.926;5.332;2023-02-27T18:18:03;6.20;96.60
25554;DHT22;13446;50.926;5.332;2023-02-27T18:20:29;6.00;97.00
25554;DHT22;13446;50.926;5.332;2023-02-27T18:22:54;5.90;97.70
25554;DHT22;13446;50.926;5.332;2023-02-27T18:25:20;5.90;97.90
25554;DHT22;13446;50.926;5.332;2023-02-27T18:27:47;5.90;98.10
25554;DHT22;13446;50.926;5.332;2023-02-27T18:30:14;6.00;98.20